createdAt,value
2023-03-23T15:57:58.743Z,17.69
2023-03-23T16:00:12.352Z,17.65
2023-03-23T16:02:25.589Z,17.60
2023-03-23T16:04:38.352Z,17.53
2023-03-23T16:06:53.177Z,17.52
2023-03-23T16:09:06.861Z,17.53
2023-03-23T16:11:19.401Z,17.52
2023-03-23T16:13:31.938Z,17.47
2023-03-23T16:15:47.487Z,17.43
2023-03-23T16:18:00.351Z,17.38
2023-03-23T16:20:19.508Z,17.32
2023-03-23T16:22:32.045Z,17.28
2023-03-23T16:24:44.628Z,17.25
2023-03-23T16:26:57.253Z,17.22
2023-03-23T16:29:23.811Z,17.20
2023-03-23T16:31:45.422Z,17.15
2023-03-23T16:33:57.964Z,17.16
2023-03-23T16:36:12.691Z,17.17
2023-03-23T16:38:25.720Z,17.17
2023-03-23T16:40:38.385Z,17.16
2023-03-23T16:42:51.077Z,17.15
2023-03-23T16:45:03.983Z,17.13
2023-03-23T16:47:18.945Z,17.10
2023-03-23T16:49:31.430Z,17.03
2023-03-23T16:51:44.035Z,16.99
2023-03-23T16:53:56.680Z,16.96
2023-03-23T16:56:09.247Z,16.91
2023-03-23T16:58:21.862Z,16.87
2023-03-23T17:00:34.568Z,16.84
2023-03-23T17:02:49.175Z,16.78
2023-03-23T17:05:02.030Z,16.74
2023-03-23T17:07:14.889Z,16.71
2023-03-23T17:09:28.029Z,16.67
2023-03-23T17:11:40.807Z,16.65
2023-03-23T17:13:53.421Z,16.64
2023-03-23T17:16:06.914Z,16.62
2023-03-23T17:18:19.508Z,16.57
2023-03-23T17:20:32.126Z,16.55
2023-03-23T17:22:44.833Z,16.53
2023-03-23T17:24:57.981Z,16.51
2023-03-23T17:27:11.406Z,16.51
2023-03-23T17:29:23.999Z,16.50
2023-03-23T17:31:36.650Z,16.48
2023-03-23T17:33:51.630Z,16.45
2023-03-23T17:36:04.510Z,16.42
2023-03-23T17:38:17.985Z,16.39
2023-03-23T17:40:30.551Z,16.36
2023-03-23T17:42:43.132Z,16.33
2023-03-23T17:44:55.692Z,16.31
2023-03-23T17:47:08.278Z,16.29
2023-03-23T17:49:20.891Z,16.28
2023-03-23T17:51:33.368Z,16.27
2023-03-23T17:53:45.919Z,16.26
2023-03-23T17:55:58.755Z,16.28
2023-03-23T17:58:12.177Z,16.32
2023-03-23T18:00:25.043Z,16.33
2023-03-23T18:02:37.806Z,16.35
2023-03-23T18:04:50.420Z,16.36
2023-03-23T18:07:02.960Z,16.34
2023-03-23T18:09:15.588Z,16.30
2023-03-23T18:11:28.198Z,16.25
2023-03-23T18:13:40.975Z,16.20
2023-03-23T18:15:55.413Z,16.15
2023-03-23T18:18:08.070Z,16.12
2023-03-23T18:20:21.716Z,16.09
2023-03-23T18:22:34.511Z,16.08
2023-03-23T18:24:47.384Z,16.06
2023-03-23T18:27:00.232Z,16.03
2023-03-23T18:29:12.849Z,15.99
2023-03-23T18:31:25.581Z,15.97
2023-03-23T18:33:39.358Z,15.94
2023-03-23T18:35:58.559Z,15.91
2023-03-23T18:38:12.150Z,15.86
2023-03-23T18:40:25.133Z,15.82
2023-03-23T18:42:39.766Z,15.79
2023-03-23T18:44:54.815Z,15.77
2023-03-23T18:47:07.387Z,15.76
2023-03-23T18:49:20.007Z,15.74
2023-03-23T18:51:32.595Z,15.74
2023-03-23T18:53:45.201Z,15.74
2023-03-23T18:56:07.631Z,15.73
2023-03-23T18:58:21.062Z,15.73
2023-03-23T19:00:33.879Z,15.72
2023-03-23T19:02:47.155Z,15.72
2023-03-23T19:05:09.740Z,15.72
2023-03-23T19:07:22.471Z,15.71
2023-03-23T19:09:35.135Z,15.70
2023-03-23T19:11:47.839Z,15.70
2023-03-23T19:14:02.900Z,15.71
2023-03-23T19:16:16.153Z,15.69
2023-03-23T19:18:29.069Z,15.70
2023-03-23T19:21:09.292Z,15.71
2023-03-23T19:23:15.031Z,15.70
2023-03-23T19:25:27.726Z,15.70
2023-03-23T19:28:14.681Z,15.71
2023-03-23T19:30:13.140Z,15.68
2023-03-23T19:32:25.815Z,15.70
2023-03-23T19:34:39.473Z,15.70
2023-03-23T19:36:56.290Z,15.70
2023-03-23T19:39:15.650Z,15.70
2023-03-23T19:41:29.043Z,15.70
2023-03-23T19:43:43.162Z,15.70
2023-03-23T19:45:55.812Z,15.70
2023-03-23T19:48:10.113Z,15.70
2023-03-23T19:50:22.836Z,15.70
2023-03-23T19:52:35.667Z,15.70
2023-03-23T19:54:48.315Z,15.67
2023-03-23T19:57:01.177Z,15.64
2023-03-23T19:59:16.447Z,15.63
2023-03-23T20:01:29.308Z,15.63
2023-03-23T20:03:43.358Z,15.62
2023-03-23T20:06:05.640Z,15.61
2023-03-23T20:08:18.598Z,15.60
2023-03-23T20:10:34.560Z,15.59
2023-03-23T20:12:47.263Z,15.57
2023-03-23T20:14:59.796Z,15.56
2023-03-23T20:17:14.407Z,15.53
2023-03-23T20:19:28.625Z,15.53
2023-03-23T20:21:41.321Z,15.52
2023-03-23T20:23:57.081Z,15.51
2023-03-23T20:26:15.704Z,15.51
2023-03-23T20:28:28.547Z,15.49
2023-03-23T20:30:41.261Z,15.48
2023-03-23T20:32:58.066Z,15.49
2023-03-23T20:35:11.017Z,15.47
2023-03-23T20:37:24.011Z,15.44
2023-03-23T20:39:36.647Z,15.42
2023-03-23T20:41:51.268Z,15.39
2023-03-23T20:44:05.370Z,15.36
2023-03-23T20:46:18.222Z,15.34
2023-03-23T20:48:33.820Z,15.30
2023-03-23T20:50:47.179Z,15.28
2023-03-23T20:52:59.787Z,15.27
2023-03-23T20:55:12.513Z,15.25
2023-03-23T20:57:25.168Z,15.22
2023-03-23T20:59:37.748Z,15.18
2023-03-23T21:01:50.850Z,15.14
2023-03-23T21:04:03.597Z,15.06
2023-03-23T21:06:16.639Z,14.99
2023-03-23T21:08:30.510Z,14.89
2023-03-23T21:10:44.103Z,14.81
2023-03-23T21:12:57.188Z,14.77
2023-03-23T21:15:10.031Z,14.72
2023-03-23T21:17:22.692Z,14.67
2023-03-23T21:19:35.408Z,14.61
2023-03-23T21:21:56.428Z,14.52
2023-03-23T21:24:10.827Z,14.44
2023-03-23T21:26:27.321Z,14.38
2023-03-23T21:28:40.223Z,14.34
2023-03-23T21:30:54.701Z,14.32
2023-03-23T21:33:08.875Z,14.28
2023-03-23T21:35:21.797Z,14.23
2023-03-23T21:37:34.618Z,14.18
2023-03-23T21:39:47.276Z,14.13
2023-03-23T21:42:00.212Z,14.06
2023-03-23T21:44:13.414Z,14.04
2023-03-23T21:46:25.990Z,14.01
2023-03-23T21:48:38.685Z,13.98
2023-03-23T21:50:52.200Z,13.93
2023-03-23T21:53:05.700Z,13.88
2023-03-23T21:55:18.339Z,13.80
2023-03-23T21:57:31.927Z,13.77
2023-03-23T21:59:44.572Z,13.73
2023-03-23T22:01:58.256Z,13.68
2023-03-23T22:04:11.185Z,13.60
2023-03-23T22:06:26.812Z,13.51
2023-03-23T22:08:41.177Z,13.42
2023-03-23T22:11:01.848Z,13.35
2023-03-23T22:13:17.919Z,13.29
2023-03-23T22:15:30.490Z,13.20
2023-03-23T22:17:43.725Z,13.14
2023-03-23T22:19:56.302Z,13.07
2023-03-23T22:22:09.020Z,12.99
2023-03-23T22:24:21.835Z,12.93
2023-03-23T22:26:34.506Z,12.87
2023-03-23T22:28:49.380Z,12.75
2023-03-23T22:31:04.887Z,12.67
2023-03-23T22:33:17.794Z,12.61
2023-03-23T22:35:30.647Z,12.62
2023-03-23T22:37:43.214Z,12.63
2023-03-23T22:39:55.810Z,12.63
2023-03-23T22:42:08.387Z,12.61
2023-03-23T22:44:20.938Z,12.59
2023-03-23T22:46:33.486Z,12.60
2023-03-23T22:48:46.578Z,12.61
2023-03-23T22:50:59.968Z,12.60
2023-03-23T22:53:13.656Z,12.58
2023-03-23T22:55:27.094Z,12.59
2023-03-23T22:57:39.722Z,12.56
2023-03-23T22:59:52.256Z,12.58
2023-03-23T23:02:04.825Z,12.63
2023-03-23T23:04:17.608Z,12.64
2023-03-23T23:06:30.702Z,12.61
2023-03-23T23:08:44.078Z,12.63
2023-03-23T23:10:58.788Z,12.62
2023-03-23T23:13:12.965Z,12.66
2023-03-23T23:15:26.342Z,12.71
2023-03-23T23:17:38.994Z,12.75
2023-03-23T23:19:51.527Z,12.77
2023-03-23T23:22:18.025Z,12.80
2023-03-23T23:24:32.519Z,12.82
2023-03-23T23:26:45.063Z,12.90
2023-03-23T23:28:57.724Z,12.97
2023-03-23T23:31:25.916Z,13.00
2023-03-23T23:33:38.609Z,13.01
2023-03-23T23:35:51.825Z,13.02
2023-03-23T23:38:06.671Z,13.05
2023-03-23T23:40:20.254Z,13.05
2023-03-23T23:42:32.881Z,13.06
2023-03-23T23:44:46.438Z,13.07
2023-03-23T23:46:59.123Z,13.08
2023-03-23T23:49:11.646Z,13.08
2023-03-23T23:51:27.130Z,13.06
2023-03-23T23:53:42.489Z,13.04
2023-03-23T23:55:55.043Z,13.01
2023-03-23T23:58:07.708Z,12.99
